Flight Track Log - Related Links

Times and Time Zones

All times are in EDT time to prevent confusion due to time zone crossing. See the UPS1122 flight status page for this flight to view local times or setup timezone preferences in your user account.

Time Position Orientation Groundspeed Altitude Reporting Facility
EDT Latitude Longitude Course Direction KTS MPH feet Rate Location/Type
Sat 07:03:11 AM 41.9461 -72.6997 315° West 155 178 1,600  Level Boston Center
Sat 07:03:36 AM 41.9578 -72.7156 315° West 152 175 2,100 1,835 Climbing Boston Center
Sat 07:04:36 AM 41.9942 -72.7719 311° West 213 245 4,200 2,250 Climbing Boston Center
Sat 07:05:04 AM 42.0156 -72.7969 319° Northwest 214 246 5,400 3,313 Climbing Boston Center
Sat 07:05:43 AM 42.0508 -72.8444 315° West 275 316 7,900 3,639 Climbing Boston Center
Sat 07:06:05 AM 42.0708 -72.8742 312° West 267 307 9,100 2,100 Climbing Boston Center
Sat 07:06:43 AM 42.1022 -72.9211 312° West 274 315 10,000 885 Climbing Boston Center
Sat 07:07:06 AM 42.1236 -72.9486 316° Northwest 276 318 10,000  Level Boston Center
Sat 07:07:44 AM 42.1597 -73.0000 313° West 299 344 10,000 105 Level Boston Center
Sat 07:08:03 AM 42.1789 -73.0289 312° West 322 371 10,100 90 Climbing Boston Center
Sat 07:08:51 AM 42.2269 -73.0964 314° West 327 376 10,100 -92 Level Boston Center
Sat 07:09:08 AM 42.2453 -73.1192 317° Northwest 321 369 10,000  Descending Boston Center
Sat 07:09:52 AM 42.2886 -73.1828 313° West 322 371 10,100  Climbing Boston Center
Sat 07:10:09 AM 42.3050 -73.2072 312° West 321 369 10,000  Descending Boston Center
Sat 07:10:52 AM 42.3447 -73.2761 308° West 321 369 10,100  Climbing Boston Center
Sat 07:11:09 AM 42.3625 -73.3058 309° West 321 369 10,000 -295 Descending Boston Center
Sat 07:11:53 AM 42.3958 -73.3622 309° West 281 323 9,800 -689 Descending Boston Center
Sat 07:12:10 AM 42.4111 -73.3856 312° West 275 316 9,300 -1,770 Descending Boston Center
Sat 07:12:54 AM 42.4453 -73.4453 308° West 259 298 8,000 -1,672 Descending Boston Center
Sat 07:13:11 AM 42.4578 -73.4622 315° West 268 308 7,600 -1,700 Descending Boston Center
Sat 07:13:54 AM 42.4936 -73.5219 309° West 267 307 6,300 -1,770 Descending Boston Center
Sat 07:14:12 AM 42.5081 -73.5464 309° West 268 308 5,800 -1,672 Descending Boston Center
Sat 07:14:55 AM 42.5378 -73.5975 308° West 258 297 4,600 -1,770 Descending Boston Center
Sat 07:15:13 AM 42.5517 -73.6200 310° West 254 292 4,000 -1,700 Descending Boston Center
Sat 07:15:55 AM 42.5803 -73.6700 308° West 246 283 2,900 -1,672 Descending Boston Center
Sat 07:16:14 AM 42.5936 -73.6931 308° West 250 288 2,300 -885 Descending Boston Center
Sat 07:16:56 AM 42.6136 -73.7450 298° West 225 259 2,000 -197 Descending Boston Center
Sat 07:17:15 AM 42.6233 -73.7647 304° West 222 255 2,100  Climbing Boston Center
Sat 07:17:57 AM 42.6406 -73.7978 305° West 148 170 2,000 -100 Descending Boston Center
Sat 07:18:15 AM 42.6536 -73.8008 350° North 154 177 2,000 -500 Level Boston Center
Sat 07:18:57 AM 42.6764 -73.8011 359° North 107 123 1,500 -689 Descending Boston Center
Sat 07:19:16 AM 42.6886 -73.8019 357° North 120 138 1,300 -537 Descending Boston Center
Sat 07:20:04 AM 42.7103 -73.8039 356° North 107 123 900 -590 Descending Boston Center
Sat 07:20:17 AM 42.7189 -73.8031 North 115 132 700 -486 Descending Boston Center
Sat 07:21:18 AM 42.7525 -73.8053 357° North 115 132 300 -393 Descending Boston Center
Sat 07:23:00 AM 42.7491 -73.8020 North  Level Estimated

Login

Don't have an account? Register now (free) for customized features, flight alerts, and more!